Time;durP1;ratioP1;P1;durP2;ratioP2;P2;SDS_P1;SDS_P2;PMS_P1;PMS_P2;Temp;Humidity;BMP_temperature;BMP_pressure;BME280_temperature;BME280_humidity;BME280_pressure;Samples;Min_cycle;Max_cycle;Signal;HPM_P1;HPM_P2
2022/06/22 00:02:11;;;;;;;2.70;1.65;;;;;;;12.88;73.16;96260.36;1695647;82;20985;-86
2022/06/22 00:04:52;;;;;;;2.20;1.50;;;;;;;12.82;73.22;96267.16;1728251;80;21360;-85
2022/06/22 00:07:37;;;;;;;4.10;1.60;;;;;;;12.80;73.43;96261.34;1728895;80;21011;-86
2022/06/22 00:10:17;;;;;;;2.17;1.80;;;;;;;12.78;73.31;96265.95;1736542;81;21009;-85
2022/06/22 00:12:53;;;;;;;4.20;2.58;;;;;;;12.76;73.39;96270.56;1727626;80;21341;-86
2022/06/22 00:15:36;;;;;;;8.43;2.00;;;;;;;12.74;73.56;96271.27;1718103;81;20993;-86
2022/06/22 00:18:05;;;;;;;5.15;1.90;;;;;;;12.71;73.73;96276.08;1723172;83;20932;-85
2022/06/22 00:20:32;;;;;;;2.12;1.82;;;;;;;12.67;73.88;96274.34;1753820;80;21016;-86
2022/06/22 00:23:15;;;;;;;3.90;1.95;;;;;;;12.64;74.27;96279.95;1735124;80;20973;-85
2022/06/22 00:25:41;;;;;;;2.75;1.70;;;;;;;12.62;74.11;96280.16;1729100;82;21015;-86
2022/06/22 00:28:32;;;;;;;3.25;1.85;;;;;;;12.62;74.11;96287.17;1742802;80;21010;-85
2022/06/22 00:31:21;;;;;;;2.08;1.70;;;;;;;12.63;74.12;96286.17;1730702;80;21419;-85
2022/06/22 00:34:13;;;;;;;2.30;1.87;;;;;;;12.67;73.91;96298.30;1749038;80;21389;-85
2022/06/22 00:37:04;;;;;;;3.95;2.02;;;;;;;12.68;74.15;96299.91;1751003;80;21345;-85
2022/06/22 00:39:38;;;;;;;2.83;2.10;;;;;;;12.68;74.11;96306.42;1744738;81;21043;-85
2022/06/22 00:42:15;;;;;;;2.72;1.90;;;;;;;12.70;74.41;96310.97;1751134;80;20987;-85
2022/06/22 00:45:00;;;;;;;3.02;2.12;;;;;;;12.68;74.41;96307.73;1749816;81;20985;-85
2022/06/22 00:47:40;;;;;;;2.98;1.82;;;;;;;12.67;74.58;96303.02;1756829;80;20940;-85
2022/06/22 00:50:17;;;;;;;2.85;2.10;;;;;;;12.63;74.22;96300.01;1747232;80;21004;-85
2022/06/22 00:53:01;;;;;;;3.67;2.20;;;;;;;12.65;74.23;96301.61;1748700;80;21035;-84
2022/06/22 00:55:32;;;;;;;3.27;2.40;;;;;;;12.65;74.45;96301.11;1715816;80;21028;-85
2022/06/22 00:58:33;;;;;;;2.72;2.10;;;;;;;12.62;74.50;96303.61;1728329;80;20952;-86
2022/06/22 01:01:04;;;;;;;2.77;1.90;;;;;;;12.60;74.54;96297.80;1744584;81;20992;-86
2022/06/22 01:04:02;;;;;;;3.60;2.20;;;;;;;12.56;74.44;96296.59;1743065;81;20979;-85
2022/06/22 01:06:34;;;;;;;3.20;2.12;;;;;;;12.55;74.87;96294.98;1671497;81;21059;-86
2022/06/22 01:09:11;;;;;;;5.37;2.20;;;;;;;12.52;74.76;96292.74;1729186;82;21421;-85
2022/06/22 01:14:31;;;;;;;5.37;1.92;;;;;;;12.52;74.75;96297.16;1728950;82;21015;-84
2022/06/22 01:16:58;;;;;;;3.20;2.17;;;;;;;12.54;74.82;96299.09;1756823;80;20968;-84
2022/06/22 01:19:52;;;;;;;2.55;2.35;;;;;;;12.54;74.81;96298.59;1752005;80;20993;-84
2022/06/22 01:22:36;;;;;;;2.10;1.90;;;;;;;12.54;74.61;96291.27;1698244;82;21458;-84
2022/06/22 01:25:30;;;;;;;3.65;1.98;;;;;;;12.50;74.71;96293.45;1758971;81;21002;-85
2022/06/22 01:27:56;;;;;;;5.40;2.33;;;;;;;12.47;74.79;96290.43;1758106;80;20964;-86
2022/06/22 01:30:31;;;;;;;4.17;2.12;;;;;;;12.42;74.80;96288.42;1738217;80;21374;-86
2022/06/22 01:32:56;;;;;;;2.00;1.80;;;;;;;12.40;74.83;96284.41;1746809;80;20963;-86
2022/06/22 01:35:32;;;;;;;3.47;2.08;;;;;;;12.39;74.78;96279.70;1759105;80;20936;-85
2022/06/22 01:37:58;;;;;;;3.60;2.50;;;;;;;12.39;74.65;96280.20;1758697;80;21038;-85
2022/06/22 01:40:35;;;;;;;3.90;2.12;;;;;;;12.39;74.66;96279.70;1737672;80;20982;-85
2022/06/22 01:43:10;;;;;;;3.87;2.45;;;;;;;12.37;74.88;96280.89;1759074;81;21012;-84
2022/06/22 01:45:48;;;;;;;3.17;2.22;;;;;;;12.35;74.99;96284.97;1758414;80;20973;-86
2022/06/22 01:48:28;;;;;;;3.22;2.10;;;;;;;12.32;75.04;96289.27;1759264;80;20983;-85
2022/06/22 01:51:19;;;;;;;3.15;2.12;;;;;;;12.30;75.27;96290.77;1757595;80;20991;-85
2022/06/22 01:53:53;;;;;;;5.03;2.15;;;;;;;12.29;75.07;96290.97;1754385;80;20940;-85
2022/06/22 01:56:25;;;;;;;4.15;2.47;;;;;;;12.25;75.15;96294.47;1748199;80;20999;-85
2022/06/22 01:59:11;;;;;;;3.95;2.30;;;;;;;12.26;75.56;96290.86;1750297;81;21020;-85
2022/06/22 02:01:52;;;;;;;3.47;2.20;;;;;;;12.23;75.66;96290.45;1728705;80;21391;-86
2022/06/22 02:04:39;;;;;;;3.98;2.50;;;;;;;12.20;75.64;96296.86;1753433;80;20967;-84
2022/06/22 02:07:44;;;;;;;3.65;1.92;;;;;;;12.17;75.91;96297.22;1758527;80;21014;-84
2022/06/22 02:10:43;;;;;;;3.17;1.90;;;;;;;12.17;75.93;96293.81;1740919;80;21049;-85
2022/06/22 02:13:28;;;;;;;4.35;2.33;;;;;;;12.15;75.91;96290.10;1757042;80;21043;-85
2022/06/22 02:16:23;;;;;;;2.72;2.50;;;;;;;12.14;76.31;96289.80;1758740;80;21400;-85
2022/06/22 02:19:00;;;;;;;3.58;2.55;;;;;;;12.11;76.56;96290.19;1739903;81;21028;-86
2022/06/22 02:21:31;;;;;;;3.50;2.40;;;;;;;12.08;76.59;96297.59;1730385;80;21126;-85
2022/06/22 02:24:01;;;;;;;4.70;2.30;;;;;;;12.03;76.75;96305.45;1742247;81;21031;-85
2022/06/22 02:26:38;;;;;;;2.52;2.08;;;;;;;12.02;76.99;96309.06;1749909;80;21058;-86
2022/06/22 02:29:04;;;;;;;3.70;2.10;;;;;;;12.02;77.00;96310.86;1728808;80;21395;-85
2022/06/22 02:31:29;;;;;;;3.90;1.80;;;;;;;12.01;76.92;96298.84;1748765;81;20999;-85
2022/06/22 02:33:55;;;;;;;2.65;1.87;;;;;;;11.99;76.87;96302.94;1738363;81;21023;-86
2022/06/22 02:36:27;;;;;;;4.25;2.52;;;;;;;12.01;76.79;96311.36;1758899;80;21033;-85
2022/06/22 02:38:55;;;;;;;3.65;2.05;;;;;;;12.03;77.02;96313.77;1755911;80;21373;-84
2022/06/22 02:44:29;;;;;;;2.50;1.98;;;;;;;12.01;76.98;96328.29;1759024;81;21350;-85
2022/06/22 02:46:54;;;;;;;3.05;1.85;;;;;;;11.99;76.86;96331.59;1746746;80;21409;-86
2022/06/22 02:49:32;;;;;;;2.42;1.80;;;;;;;11.99;76.98;96335.98;1732540;80;21019;-86
2022/06/22 02:51:59;;;;;;;3.25;2.17;;;;;;;11.96;76.86;96337.68;1758281;80;20983;-84
2022/06/22 02:54:35;;;;;;;3.60;2.37;;;;;;;11.94;76.80;96342.28;1752349;80;20969;-84
2022/06/22 02:57:29;;;;;;;2.62;2.10;;;;;;;11.91;77.36;96342.17;1758704;80;21362;-84
2022/06/22 02:59:54;;;;;;;3.10;2.17;;;;;;;11.90;77.45;96339.26;1756806;80;20932;-86
2022/06/22 03:02:22;;;;;;;4.33;2.33;;;;;;;11.86;77.55;96343.71;1758770;81;21360;-85
2022/06/22 03:04:48;;;;;;;3.95;2.02;;;;;;;11.86;77.71;96345.02;1758662;80;20959;-85
2022/06/22 03:07:14;;;;;;;3.15;1.90;;;;;;;11.87;77.91;96344.02;1750254;80;20975;-86
2022/06/22 03:09:40;;;;;;;2.33;1.67;;;;;;;11.89;77.87;96327.23;1758680;80;20991;-85
2022/06/22 03:12:07;;;;;;;4.00;2.27;;;;;;;11.89;77.72;96327.23;1689586;80;20978;-85
2022/06/22 03:14:36;;;;;;;3.15;2.72;;;;;;;11.92;77.79;96338.56;1758817;80;21007;-85
2022/06/22 03:17:06;;;;;;;2.77;2.30;;;;;;;11.91;77.76;96341.36;1758914;80;20952;-83
2022/06/22 03:19:56;;;;;;;4.75;2.37;;;;;;;11.90;78.00;96335.85;1758621;80;20975;-84
2022/06/22 03:22:43;;;;;;;4.75;2.40;;;;;;;11.84;77.90;96323.58;1698472;84;21047;-84
2022/06/22 03:25:19;;;;;;;2.83;2.02;;;;;;;11.80;78.08;96323.66;1708266;82;21059;-84
2022/06/22 03:27:52;;;;;;;3.22;1.90;;;;;;;11.83;78.34;96325.88;1713107;83;20998;-85
2022/06/22 03:30:25;;;;;;;4.03;1.80;;;;;;;11.83;78.19;96324.58;1707568;82;21023;-85
2022/06/22 03:33:05;;;;;;;4.03;2.08;;;;;;;11.83;78.14;96320.67;1700577;82;21014;-85
2022/06/22 03:35:49;;;;;;;4.87;2.25;;;;;;;11.83;78.28;96313.66;1689267;82;20966;-85
2022/06/22 03:38:25;;;;;;;4.72;2.25;;;;;;;11.81;78.51;96300.53;1703534;82;20982;-85
2022/06/22 03:41:02;;;;;;;2.27;1.90;;;;;;;11.77;78.77;96295.38;1709514;82;21272;-85
2022/06/22 03:43:45;;;;;;;5.37;2.10;;;;;;;11.74;78.97;96299.17;1739700;82;21287;-84
2022/06/22 03:46:28;;;;;;;2.42;2.10;;;;;;;11.73;79.03;96300.97;1693202;82;21408;-84
2022/06/22 03:48:59;;;;;;;3.22;2.05;;;;;;;11.72;79.14;96298.06;1728136;82;21086;-84
2022/06/22 03:51:31;;;;;;;3.87;2.20;;;;;;;11.71;79.43;96299.06;1701480;82;21050;-85
2022/06/22 03:54:09;;;;;;;5.08;2.20;;;;;;;11.71;79.50;96309.47;1694302;82;21361;-85
2022/06/22 03:56:42;;;;;;;5.53;3.00;;;;;;;11.72;79.69;96318.09;1699239;82;21031;-84
2022/06/22 03:59:07;;;;;;;3.67;2.12;;;;;;;11.71;80.00;96316.45;1705397;82;21018;-85
2022/06/22 04:01:33;;;;;;;3.00;2.00;;;;;;;11.71;80.20;96325.55;1692135;82;20993;-88
2022/06/22 04:03:59;;;;;;;3.05;1.90;;;;;;;11.72;80.37;96324.09;1696653;82;21082;-86
2022/06/22 04:06:33;;;;;;;3.75;1.85;;;;;;;11.74;80.36;96320.00;1708956;82;20971;-87
2022/06/22 04:09:00;;;;;;;5.37;2.42;;;;;;;11.75;80.32;96312.49;1704048;84;21042;-87
2022/06/22 04:12:06;;;;;;;5.22;2.67;;;;;;;11.80;80.23;96314.55;1700380;82;20947;-87
2022/06/22 04:14:43;;;;;;;4.83;2.30;;;;;;;11.79;80.22;96311.14;1710690;82;21048;-86
2022/06/22 04:17:23;;;;;;;3.30;2.30;;;;;;;11.75;80.32;96319.00;1679862;84;21001;-88
2022/06/22 04:20:01;;;;;;;3.45;2.40;;;;;;;11.73;80.38;96315.79;1696956;82;21006;-86
2022/06/22 04:22:27;;;;;;;3.67;2.50;;;;;;;11.71;80.43;96324.25;1731424;82;21017;-86
2022/06/22 04:25:01;;;;;;;3.80;2.30;;;;;;;11.73;80.47;96328.80;1729122;81;20997;-86
2022/06/22 04:27:38;;;;;;;6.12;2.50;;;;;;;11.77;80.54;96327.42;1732210;82;21020;-87
2022/06/22 04:30:23;;;;;;;3.45;2.15;;;;;;;11.81;80.65;96333.88;1693156;84;21077;-87
2022/06/22 04:33:07;;;;;;;2.85;1.87;;;;;;;11.87;80.64;96333.11;1704465;83;21036;-88
2022/06/22 04:35:55;;;;;;;3.27;2.40;;;;;;;11.87;80.67;96335.70;1729299;81;20937;-87
2022/06/22 04:38:33;;;;;;;5.70;2.33;;;;;;;11.87;80.83;96343.52;1724182;82;20958;-87
2022/06/22 04:41:04;;;;;;;4.28;1.80;;;;;;;11.90;81.14;96352.28;1728641;82;21025;-85
2022/06/22 04:43:31;;;;;;;2.62;2.02;;;;;;;11.95;81.06;96356.41;1691545;83;21384;-84
2022/06/22 04:45:57;;;;;;;3.47;2.87;;;;;;;11.99;81.09;96350.31;1716947;82;21062;-85
2022/06/22 04:48:30;;;;;;;3.50;2.12;;;;;;;12.04;81.16;96354.47;1696127;83;21082;-85
2022/06/22 04:50:59;;;;;;;2.40;2.20;;;;;;;12.09;81.33;96351.28;1736161;81;21050;-85
2022/06/22 04:53:45;;;;;;;4.25;2.25;;;;;;;12.12;81.52;96351.70;1732904;82;21003;-84
2022/06/22 04:56:14;;;;;;;5.15;2.22;;;;;;;12.15;81.76;96359.13;1675792;83;21021;-85
2022/06/22 04:58:47;;;;;;;3.22;2.17;;;;;;;12.17;81.90;96355.02;1712412;82;20959;-86
2022/06/22 05:01:30;;;;;;;5.22;2.35;;;;;;;12.20;82.00;96351.56;1746359;81;21047;-86
2022/06/22 05:04:01;;;;;;;5.20;1.90;;;;;;;12.25;82.23;96350.98;1734995;83;21001;-85
2022/06/22 05:06:49;;;;;;;5.67;2.30;;;;;;;12.29;82.15;96343.08;1729628;81;21005;-84
2022/06/22 05:09:26;;;;;;;4.10;2.40;;;;;;;12.36;82.29;96354.81;1705724;82;21021;-85
2022/06/22 05:11:52;;;;;;;3.83;2.58;;;;;;;12.44;82.36;96361.19;1681530;83;21002;-85
2022/06/22 05:14:27;;;;;;;6.03;2.40;;;;;;;12.48;82.34;96368.91;1713751;82;21342;-86
2022/06/22 05:17:01;;;;;;;3.40;2.27;;;;;;;12.52;82.45;96364.41;1694337;83;21420;-86
2022/06/22 05:19:35;;;;;;;4.85;2.42;;;;;;;12.56;82.62;96365.66;1739728;81;21023;-85
2022/06/22 05:22:01;;;;;;;7.53;3.30;;;;;;;12.62;82.64;96366.67;1711420;82;21019;-85
2022/06/22 05:24:32;;;;;;;2.95;2.33;;;;;;;12.70;82.68;96373.53;1705758;83;21043;-84
2022/06/22 05:26:59;;;;;;;4.58;2.50;;;;;;;12.76;82.40;96368.84;1722703;81;21041;-84
2022/06/22 05:29:38;;;;;;;4.20;2.30;;;;;;;12.81;82.07;96367.73;1703080;83;20974;-84
2022/06/22 05:32:09;;;;;;;4.28;2.00;;;;;;;12.84;81.87;96359.52;1683675;83;21043;-84
2022/06/22 05:34:38;;;;;;;4.25;2.33;;;;;;;12.89;82.19;96350.63;1698742;83;21042;-86
2022/06/22 05:37:10;;;;;;;3.45;2.25;;;;;;;12.93;82.49;96351.84;1708978;83;20981;-86
2022/06/22 05:39:35;;;;;;;3.25;2.50;;;;;;;12.99;82.78;96353.65;1735367;81;20979;-86
2022/06/22 05:42:02;;;;;;;3.98;2.10;;;;;;;13.08;82.55;96352.48;1743525;82;21038;-85
2022/06/22 05:44:28;;;;;;;2.80;1.90;;;;;;;13.13;82.61;96350.07;1735402;82;20934;-85
2022/06/22 05:46:57;;;;;;;3.40;2.15;;;;;;;13.16;82.70;96339.73;1732617;82;20978;-85
2022/06/22 05:49:27;;;;;;;3.58;2.02;;;;;;;13.21;82.94;96346.02;1717654;82;21029;-85
2022/06/22 05:51:58;;;;;;;5.47;2.75;;;;;;;13.26;82.98;96347.22;1735377;82;21039;-84
2022/06/22 05:54:41;;;;;;;2.05;1.82;;;;;;;13.30;82.48;96346.61;1743396;82;20972;-84
2022/06/22 05:57:28;;;;;;;4.28;2.37;;;;;;;13.35;82.46;96342.92;1740968;81;21015;-85
2022/06/22 06:00:01;;;;;;;6.95;2.27;;;;;;;13.43;82.13;96344.02;1724543;81;21055;-86
2022/06/22 06:02:40;;;;;;;6.75;2.75;;;;;;;13.49;81.95;96346.31;1714635;82;21351;-85
2022/06/22 06:05:32;;;;;;;3.12;2.47;;;;;;;13.55;82.02;96348.65;1722641;82;21242;-86
2022/06/22 06:08:00;;;;;;;5.35;2.47;;;;;;;13.62;82.35;96350.24;1719578;81;21366;-85
2022/06/22 06:10:32;;;;;;;2.85;1.80;;;;;;;13.71;81.26;96345.13;1729473;82;20972;-86
2022/06/22 06:13:16;;;;;;;2.95;1.62;;;;;;;13.79;82.13;96351.44;1736005;82;20968;-86
2022/06/22 06:15:42;;;;;;;5.05;2.00;;;;;;;13.85;82.30;96356.88;1732523;81;20982;-85
2022/06/22 06:18:15;;;;;;;4.75;2.20;;;;;;;13.91;82.51;96352.14;1747207;81;21023;-86
2022/06/22 06:20:43;;;;;;;3.58;2.30;;;;;;;13.99;81.73;96351.44;1724463;81;21324;-85
2022/06/22 06:23:20;;;;;;;4.15;2.40;;;;;;;14.13;80.14;96348.27;1754795;81;21528;-85
2022/06/22 06:28:52;;;;;;;4.22;2.75;;;;;;;14.42;79.58;96355.64;1721059;81;21410;-85
2022/06/22 06:31:23;;;;;;;4.67;2.45;;;;;;;14.57;77.40;96357.23;1740527;80;21043;-86
2022/06/22 06:33:50;;;;;;;5.22;2.47;;;;;;;14.70;78.30;96361.11;1752585;80;21076;-86
2022/06/22 06:36:24;;;;;;;4.47;2.47;;;;;;;14.82;77.35;96364.69;1756010;80;21049;-87
2022/06/22 06:39:03;;;;;;;3.27;2.05;;;;;;;14.91;76.26;96360.80;1758725;80;20969;-87
2022/06/22 06:41:46;;;;;;;4.08;2.02;;;;;;;15.06;74.42;96362.34;1754923;81;21014;-84
2022/06/22 06:44:20;;;;;;;1.98;1.70;;;;;;;15.21;76.74;96360.23;1744368;80;21004;-85
2022/06/22 06:46:53;;;;;;;3.30;1.75;;;;;;;15.30;77.11;96357.67;1759412;81;21015;-85
2022/06/22 06:49:41;;;;;;;4.58;2.00;;;;;;;15.37;77.36;96349.25;1746851;80;21034;-85
2022/06/22 06:52:50;;;;;;;3.37;1.95;;;;;;;15.43;77.15;96350.21;1746816;80;20999;-86
2022/06/22 06:55:39;;;;;;;3.02;1.70;;;;;;;15.56;75.66;96360.08;1752466;80;21025;-87
2022/06/22 06:58:19;;;;;;;2.35;1.90;;;;;;;15.73;74.26;96370.06;1756311;80;21351;-85
2022/06/22 07:00:46;;;;;;;2.72;1.90;;;;;;;15.87;72.54;96374.18;1751555;80;20990;-86
2022/06/22 07:03:35;;;;;;;3.75;2.00;;;;;;;15.99;71.48;96369.84;1756495;80;21045;-85
2022/06/22 07:06:04;;;;;;;2.75;1.70;;;;;;;16.07;70.38;96372.69;1733458;80;21079;-86
2022/06/22 07:08:37;;;;;;;3.83;1.85;;;;;;;16.18;69.97;96378.02;1740666;80;20999;-85
2022/06/22 07:11:13;;;;;;;3.62;1.87;;;;;;;16.27;70.13;96376.41;1748255;80;20930;-86
2022/06/22 07:13:49;;;;;;;3.17;1.95;;;;;;;16.36;68.82;96373.81;1739472;81;21045;-85
2022/06/22 07:16:20;;;;;;;3.20;1.90;;;;;;;16.43;68.02;96368.81;1753358;80;21012;-85
2022/06/22 07:18:59;;;;;;;3.37;1.72;;;;;;;16.49;66.88;96373.68;1734463;80;21000;-84
2022/06/22 07:21:42;;;;;;;4.10;1.85;;;;;;;16.54;66.83;96367.25;1749893;81;20944;-85
2022/06/22 07:24:33;;;;;;;2.08;1.20;;;;;;;16.61;68.44;96362.75;1734108;81;21034;-84
2022/06/22 07:27:22;;;;;;;2.75;1.70;;;;;;;16.68;66.42;96373.98;1736945;82;21376;-84
2022/06/22 07:30:01;;;;;;;2.10;1.30;;;;;;;16.74;65.15;96367.05;1737797;81;21345;-85
2022/06/22 07:32:53;;;;;;;3.60;1.70;;;;;;;16.82;65.62;96370.70;1748980;81;21528;-85
2022/06/22 07:35:29;;;;;;;2.77;1.55;;;;;;;16.89;65.70;96365.36;1757682;81;20986;-84
2022/06/22 07:38:17;;;;;;;3.00;1.60;;;;;;;16.92;67.74;96367.05;1729239;81;20991;-85
2022/06/22 07:41:18;;;;;;;3.92;1.20;;;;;;;16.97;65.31;96365.06;1721828;81;20999;-85
2022/06/22 07:43:11;;;;;;;2.50;1.65;;;;;;;17.03;66.12;96362.34;1746922;81;20994;-84
2022/06/22 07:45:38;;;;;;;1.50;0.95;;;;;;;17.08;65.66;96362.49;1732817;81;21436;-85
2022/06/22 07:48:09;;;;;;;3.47;1.17;;;;;;;17.13;65.46;96364.44;1737812;81;21023;-84
2022/06/22 07:50:48;;;;;;;2.67;1.40;;;;;;;17.16;65.02;96358.74;1690040;82;21004;-84
2022/06/22 07:53:35;;;;;;;2.02;1.10;;;;;;;17.22;63.04;96368.34;1742795;81;21460;-85
2022/06/22 07:56:24;;;;;;;2.20;1.20;;;;;;;17.26;63.44;96362.95;1751694;81;20972;-84
2022/06/22 07:59:06;;;;;;;2.10;1.10;;;;;;;17.32;60.07;96361.25;1706486;81;20906;-85
2022/06/22 08:01:37;;;;;;;3.20;1.12;;;;;;;17.45;58.93;96366.82;1731602;81;20975;-84
2022/06/22 08:04:38;;;;;;;2.67;1.23;;;;;;;17.58;58.51;96364.00;1742714;81;21628;-85
2022/06/22 08:07:10;;;;;;;2.58;1.30;;;;;;;17.69;57.70;96362.71;1743018;81;21257;-85
2022/06/22 08:10:09;;;;;;;3.62;1.02;;;;;;;17.82;56.11;96376.67;1737095;81;21018;-86
2022/06/22 08:13:01;;;;;;;3.05;0.90;;;;;;;17.93;58.51;96374.06;1732832;81;20956;-85
2022/06/22 08:15:27;;;;;;;2.65;1.20;;;;;;;18.04;56.73;96370.34;1737048;81;21031;-83
2022/06/22 08:17:55;;;;;;;2.67;1.32;;;;;;;18.16;56.12;96369.31;1734155;81;21040;-85
2022/06/22 08:20:26;;;;;;;1.95;1.07;;;;;;;18.28;55.48;96369.31;1723896;81;20948;-85
2022/06/22 08:22:53;;;;;;;2.42;1.07;;;;;;;18.42;56.98;96365.92;1715252;81;21054;-85
2022/06/22 08:25:20;;;;;;;3.65;1.22;;;;;;;18.58;55.95;96363.38;1694063;82;21015;-85
2022/06/22 08:27:46;;;;;;;3.58;1.27;;;;;;;18.76;54.63;96355.06;1722188;81;21002;-84
2022/06/22 08:30:13;;;;;;;3.30;1.30;;;;;;;18.95;55.52;96360.95;1734839;80;21006;-85
2022/06/22 08:33:04;;;;;;;4.12;1.40;;;;;;;19.09;54.69;96359.13;1754677;80;20921;-85
2022/06/22 08:35:38;;;;;;;2.07;1.07;;;;;;;19.20;53.34;96352.22;1725837;81;20936;-85
2022/06/22 08:38:14;;;;;;;3.08;1.27;;;;;;;19.37;53.28;96362.27;1760426;81;20978;-85
2022/06/22 08:41:01;;;;;;;4.20;1.62;;;;;;;19.60;53.10;96359.23;1718109;80;20974;-85
2022/06/22 08:44:07;;;;;;;2.37;1.30;;;;;;;19.75;52.82;96362.91;1713255;82;21090;-84
2022/06/22 08:46:50;;;;;;;2.20;1.10;;;;;;;19.92;51.28;96361.59;1767634;81;21023;-85
2022/06/22 08:49:41;;;;;;;2.60;1.20;;;;;;;20.12;52.74;96364.23;1687031;81;21019;-85
2022/06/22 08:52:49;;;;;;;3.70;1.10;;;;;;;20.27;51.16;96372.37;1739737;80;21373;-85
2022/06/22 08:55:54;;;;;;;1.85;1.30;;;;;;;20.32;49.79;96381.66;1745817;81;21037;-84
2022/06/22 08:58:44;;;;;;;2.27;0.90;;;;;;;20.44;51.14;96374.48;1727945;81;21057;-85
2022/06/22 09:01:24;;;;;;;2.60;1.20;;;;;;;20.57;50.98;96371.48;1737420;83;21294;-84
2022/06/22 09:04:20;;;;;;;2.67;1.20;;;;;;;20.73;50.03;96371.16;1742863;80;21002;-84
2022/06/22 09:07:31;;;;;;;3.17;1.65;;;;;;;20.91;49.74;96375.33;1741802;80;20999;-85
2022/06/22 09:10:45;;;;;;;2.65;1.22;;;;;;;21.06;49.63;96370.73;1721214;80;20967;-85
2022/06/22 09:13:31;;;;;;;2.67;0.90;;;;;;;21.17;49.69;96364.00;1725065;81;21037;-84
2022/06/22 09:16:26;;;;;;;4.72;1.10;;;;;;;21.20;49.87;96356.09;1722397;83;21020;-84
2022/06/22 09:19:35;;;;;;;3.02;1.05;;;;;;;21.25;50.04;96354.84;1732164;81;20971;-84
2022/06/22 09:22:19;;;;;;;3.12;1.00;;;;;;;21.28;49.03;96349.05;1720527;81;21513;-85
2022/06/22 09:25:14;;;;;;;2.72;1.27;;;;;;;21.21;46.92;96347.12;1729977;80;21085;-84
2022/06/22 09:28:01;;;;;;;3.25;1.30;;;;;;;21.06;47.78;96356.20;1707024;82;21318;-84
2022/06/22 09:31:21;;;;;;;3.22;1.15;;;;;;;21.06;49.50;96358.84;1733380;83;20994;-84
2022/06/22 09:34:07;;;;;;;2.75;1.20;;;;;;;21.19;49.55;96348.69;1729859;80;20970;-85
2022/06/22 09:36:45;;;;;;;2.60;1.30;;;;;;;21.40;50.16;96356.31;1682757;82;21054;-85
2022/06/22 09:39:48;;;;;;;4.30;1.25;;;;;;;21.44;48.33;96359.25;1737111;81;21316;-86
2022/06/22 09:42:45;;;;;;;3.58;1.45;;;;;;;21.46;47.97;96353.98;1709430;81;21016;-85
2022/06/22 09:45:35;;;;;;;2.45;1.27;;;;;;;21.58;49.41;96345.89;1716133;80;20994;-83
2022/06/22 09:48:33;;;;;;;1.67;1.15;;;;;;;21.66;47.50;96349.94;1712452;82;20959;-84
2022/06/22 09:51:17;;;;;;;3.35;1.20;;;;;;;21.43;47.27;96353.69;1696189;83;21070;-84
2022/06/22 09:54:06;;;;;;;2.62;1.10;;;;;;;21.22;48.34;96356.64;1732969;80;21034;-84
2022/06/22 09:57:01;;;;;;;3.83;1.30;;;;;;;21.14;49.17;96353.91;1654117;83;20996;-84
2022/06/22 09:59:44;;;;;;;2.70;1.27;;;;;;;21.20;48.41;96351.61;1734155;81;20988;-85
2022/06/22 10:02:33;;;;;;;2.10;1.40;;;;;;;21.35;47.40;96350.19;1732174;81;21011;-84
2022/06/22 10:05:38;;;;;;;2.45;1.50;;;;;;;21.38;46.89;96353.65;1743715;81;21455;-85
2022/06/22 10:08:26;;;;;;;2.67;1.45;;;;;;;21.37;46.33;96358.66;1742086;81;21101;-84
2022/06/22 10:11:12;;;;;;;2.10;1.10;;;;;;;21.24;46.37;96355.37;1733084;82;21019;-84
2022/06/22 10:14:02;;;;;;;5.47;3.50;;;;;;;21.25;47.61;96347.71;1734290;81;21007;-85
2022/06/22 10:16:51;;;;;;;4.67;2.10;;;;;;;21.35;47.85;96349.66;1754752;81;21059;-85
2022/06/22 10:19:38;;;;;;;4.12;1.67;;;;;;;21.46;49.32;96350.53;1733741;80;21089;-84
2022/06/22 10:22:13;;;;;;;2.47;1.50;;;;;;;21.52;49.22;96346.38;1735546;80;20967;-84
2022/06/22 10:25:12;;;;;;;5.28;1.90;;;;;;;21.54;48.58;96352.73;1735688;81;20981;-84
2022/06/22 10:28:01;;;;;;;2.90;1.67;;;;;;;21.61;48.92;96349.34;1752132;81;20975;-84
2022/06/22 10:31:00;;;;;;;4.42;1.60;;;;;;;21.71;49.46;96347.32;1736998;81;21033;-85
2022/06/22 10:34:12;;;;;;;3.15;1.60;;;;;;;21.77;50.12;96347.09;1733115;81;20960;-84
2022/06/22 10:37:25;;;;;;;3.65;1.72;;;;;;;21.88;49.59;96343.48;1736849;80;21473;-84
2022/06/22 10:40:05;;;;;;;2.27;1.47;;;;;;;21.54;50.60;96347.45;1737007;81;21039;-84
2022/06/22 10:45:49;;;;;;;3.25;1.60;;;;;;;21.01;49.06;96362.77;1699315;83;21342;-84
2022/06/22 10:48:27;;;;;;;6.17;2.37;;;;;;;20.98;50.50;96356.91;1740446;82;21388;-85
2022/06/22 10:51:40;;;;;;;4.85;3.10;;;;;;;21.15;49.34;96351.56;1733544;80;20987;-84
2022/06/22 10:54:32;;;;;;;3.67;2.33;;;;;;;21.27;49.05;96350.10;1733152;83;21027;-84
2022/06/22 10:57:52;;;;;;;3.22;2.10;;;;;;;21.45;49.08;96351.59;1733319;80;21039;-84
2022/06/22 11:00:57;;;;;;;3.80;2.08;;;;;;;21.69;49.28;96342.29;1735876;81;21445;-85
2022/06/22 11:03:40;;;;;;;3.83;2.58;;;;;;;21.89;49.59;96348.25;1735230;83;21119;-84
2022/06/22 11:06:32;;;;;;;5.40;2.27;;;;;;;21.88;48.42;96346.12;1735266;82;21003;-85
2022/06/22 11:09:21;;;;;;;5.20;3.33;;;;;;;21.94;47.60;96340.86;1754204;81;21011;-85
2022/06/22 11:12:11;;;;;;;3.90;1.90;;;;;;;22.12;49.06;96347.09;1753486;81;21416;-85
2022/06/22 11:15:01;;;;;;;5.20;2.10;;;;;;;22.30;48.86;96346.70;1750159;80;20968;-84
2022/06/22 11:18:02;;;;;;;3.52;2.00;;;;;;;22.39;49.55;96338.52;1739904;81;21020;-86
2022/06/22 11:20:56;;;;;;;4.03;2.20;;;;;;;22.59;48.15;96340.46;1745077;81;21067;-85
2022/06/22 11:23:33;;;;;;;4.20;1.80;;;;;;;22.66;48.36;96342.36;1728819;82;20988;-85
2022/06/22 11:32:34;;;;;;;4.22;2.67;;;;;;;23.03;48.62;96332.96;1751418;82;21037;-85
2022/06/22 11:35:46;;;;;;;4.05;2.50;;;;;;;23.00;47.90;96322.89;1767528;80;20944;-85
2022/06/22 11:38:52;;;;;;;5.08;2.50;;;;;;;23.18;49.44;96322.92;1763956;80;21001;-84
2022/06/22 11:41:33;;;;;;;4.83;2.33;;;;;;;23.45;46.88;96333.84;1758235;81;21028;-85
2022/06/22 11:44:36;;;;;;;3.77;2.50;;;;;;;23.36;45.91;96336.99;1750225;80;20938;-83
2022/06/22 11:47:12;;;;;;;3.47;1.75;;;;;;;23.30;45.82;96334.08;1756417;80;21029;-84
2022/06/22 11:49:49;;;;;;;4.75;2.17;;;;;;;22.94;44.97;96339.02;1750050;82;21478;-86
2022/06/22 11:52:30;;;;;;;4.05;2.15;;;;;;;22.94;46.32;96350.45;1749594;82;20946;-85
2022/06/22 11:55:28;;;;;;;5.05;2.40;;;;;;;22.85;45.92;96345.37;1757002;80;21131;-85
2022/06/22 11:58:16;;;;;;;2.87;1.60;;;;;;;23.00;46.83;96343.30;1754047;80;21005;-86
2022/06/22 12:00:59;;;;;;;3.45;1.72;;;;;;;23.02;44.35;96341.97;1754683;80;20964;-84
2022/06/22 12:03:45;;;;;;;2.55;1.77;;;;;;;22.76;45.43;96352.98;1754330;81;21064;-85
2022/06/22 12:06:38;;;;;;;3.80;1.77;;;;;;;22.62;44.62;96346.59;1750639;80;20977;-85
2022/06/22 12:09:26;;;;;;;5.78;2.30;;;;;;;22.70;45.92;96347.40;1752706;80;21095;-85
2022/06/22 12:12:24;;;;;;;3.52;2.10;;;;;;;23.00;45.86;96343.30;1751241;80;21336;-85
2022/06/22 12:15:31;;;;;;;3.47;1.77;;;;;;;23.12;45.22;96335.11;1752001;82;21053;-85
2022/06/22 12:18:24;;;;;;;4.42;2.05;;;;;;;23.49;45.65;96339.66;1739374;82;20997;-85
2022/06/22 12:21:27;;;;;;;3.00;1.65;;;;;;;23.81;46.58;96326.70;1757508;80;20952;-84
2022/06/22 12:24:02;;;;;;;2.83;1.52;;;;;;;24.08;44.66;96322.39;1730275;81;20987;-84
2022/06/22 12:26:59;;;;;;;2.45;1.20;;;;;;;23.88;42.14;96321.37;1729704;82;21296;-85
2022/06/22 12:29:54;;;;;;;1.87;1.12;;;;;;;23.70;43.08;96329.88;1735108;83;21022;-84
2022/06/22 12:32:36;;;;;;;3.25;1.40;;;;;;;23.70;43.24;96326.42;1675114;84;21179;-84
2022/06/22 12:35:27;;;;;;;5.10;1.60;;;;;;;23.65;43.45;96328.56;1695897;83;21162;-83
2022/06/22 12:38:00;;;;;;;5.10;1.57;;;;;;;23.30;44.86;96338.59;1712220;80;20982;-84
2022/06/22 12:40:52;;;;;;;2.30;1.35;;;;;;;23.16;44.62;96333.53;1735080;80;21071;-85
2022/06/22 12:43:43;;;;;;;5.20;1.22;;;;;;;22.88;43.11;96328.16;1700173;83;21002;-85
2022/06/22 12:46:47;;;;;;;2.40;1.40;;;;;;;22.92;46.80;96321.27;1723380;82;21000;-84
2022/06/22 12:49:52;;;;;;;2.17;1.02;;;;;;;22.74;45.72;96320.66;1748618;81;20983;-84
2022/06/22 12:52:29;;;;;;;3.22;1.30;;;;;;;22.52;46.04;96316.08;1730762;81;20997;-85
2022/06/22 12:54:58;;;;;;;4.50;1.50;;;;;;;22.30;47.07;96320.23;1760552;80;21460;-85
2022/06/22 12:57:41;;;;;;;4.62;1.60;;;;;;;22.38;47.76;96322.38;1732702;80;21022;-85
2022/06/22 13:00:11;;;;;;;3.70;1.72;;;;;;;22.64;50.37;96325.14;1733843;81;21026;-84